sensor_id;sensor_type;location;lat;lon;timestamp;temperature;humidity
14531;DHT22;7352;50.866;4.366;2022-08-19T00:02:23;23.30;99.90
14531;DHT22;7352;50.866;4.366;2022-08-19T00:05:05;23.20;99.90
14531;DHT22;7352;50.866;4.366;2022-08-19T00:07:39;23.20;99.90
14531;DHT22;7352;50.866;4.366;2022-08-19T00:10:37;23.10;99.90
14531;DHT22;7352;50.866;4.366;2022-08-19T00:15:45;23.00;99.90
14531;DHT22;7352;50.866;4.366;2022-08-19T00:18:29;23.00;99.90
14531;DHT22;7352;50.866;4.366;2022-08-19T00:21:13;23.10;99.90
14531;DHT22;7352;50.866;4.366;2022-08-19T00:23:44;23.00;99.90
14531;DHT22;7352;50.866;4.366;2022-08-19T00:26:19;22.90;99.90
14531;DHT22;7352;50.866;4.366;2022-08-19T00:28:50;23.10;99.90
14531;DHT22;7352;50.866;4.366;2022-08-19T00:31:17;23.20;99.90
14531;DHT22;7352;50.866;4.366;2022-08-19T00:37:08;23.10;99.90
14531;DHT22;7352;50.866;4.366;2022-08-19T00:39:39;23.20;99.90
14531;DHT22;7352;50.866;4.366;2022-08-19T00:42:09;23.20;99.90
14531;DHT22;7352;50.866;4.366;2022-08-19T00:44:55;23.20;99.90
14531;DHT22;7352;50.866;4.366;2022-08-19T00:47:49;23.10;99.90
14531;DHT22;7352;50.866;4.366;2022-08-19T00:50:23;23.10;99.90
14531;DHT22;7352;50.866;4.366;2022-08-19T00:53:23;23.00;99.90
14531;DHT22;7352;50.866;4.366;2022-08-19T00:55:58;23.00;99.90
14531;DHT22;7352;50.866;4.366;2022-08-19T00:58:36;23.10;99.90
14531;DHT22;7352;50.866;4.366;2022-08-19T01:01:49;23.20;99.90
14531;DHT22;7352;50.866;4.366;2022-08-19T01:04:30;23.20;99.90
14531;DHT22;7352;50.866;4.366;2022-08-19T01:07:39;23.20;99.90
14531;DHT22;7352;50.866;4.366;2022-08-19T01:10:49;23.20;99.90
14531;DHT22;7352;50.866;4.366;2022-08-19T01:17:26;23.30;99.90
14531;DHT22;7352;50.866;4.366;2022-08-19T01:20:23;23.20;99.90
14531;DHT22;7352;50.866;4.366;2022-08-19T01:23:26;23.00;99.90
14531;DHT22;7352;50.866;4.366;2022-08-19T01:26:20;23.00;99.90
14531;DHT22;7352;50.866;4.366;2022-08-19T01:31:55;22.80;99.90
14531;DHT22;7352;50.866;4.366;2022-08-19T01:34:24;22.60;99.90
14531;DHT22;7352;50.866;4.366;2022-08-19T01:36:54;22.70;99.90
14531;DHT22;7352;50.866;4.366;2022-08-19T01:46:46;22.30;99.90
14531;DHT22;7352;50.866;4.366;2022-08-19T01:49:50;22.00;99.90
14531;DHT22;7352;50.866;4.366;2022-08-19T01:52:17;22.00;99.90
14531;DHT22;7352;50.866;4.366;2022-08-19T01:55:12;21.90;99.90
14531;DHT22;7352;50.866;4.366;2022-08-19T01:58:23;22.00;99.90
14531;DHT22;7352;50.866;4.366;2022-08-19T02:01:29;21.90;99.90
14531;DHT22;7352;50.866;4.366;2022-08-19T02:04:27;21.90;99.90
14531;DHT22;7352;50.866;4.366;2022-08-19T02:07:03;22.00;99.90
14531;DHT22;7352;50.866;4.366;2022-08-19T02:09:42;21.90;99.90
14531;DHT22;7352;50.866;4.366;2022-08-19T02:12:19;21.70;99.90
14531;DHT22;7352;50.866;4.366;2022-08-19T02:14:48;21.60;99.90
14531;DHT22;7352;50.866;4.366;2022-08-19T02:17:49;21.60;99.90
14531;DHT22;7352;50.866;4.366;2022-08-19T02:20:47;21.50;99.90
14531;DHT22;7352;50.866;4.366;2022-08-19T02:34:12;21.50;99.90
14531;DHT22;7352;50.866;4.366;2022-08-19T02:53:40;21.50;99.90
14531;DHT22;7352;50.866;4.366;2022-08-19T02:56:08;21.50;99.90
14531;DHT22;7352;50.866;4.366;2022-08-19T02:59:06;21.30;99.90
14531;DHT22;7352;50.866;4.366;2022-08-19T03:01:53;21.30;99.90
14531;DHT22;7352;50.866;4.366;2022-08-19T03:04:21;21.30;99.90
14531;DHT22;7352;50.866;4.366;2022-08-19T03:08:26;21.20;99.90
14531;DHT22;7352;50.866;4.366;2022-08-19T03:14:06;21.00;99.90
14531;DHT22;7352;50.866;4.366;2022-08-19T03:16:39;21.00;99.90
14531;DHT22;7352;50.866;4.366;2022-08-19T03:19:15;20.90;99.90
14531;DHT22;7352;50.866;4.366;2022-08-19T03:21:45;20.90;99.90
14531;DHT22;7352;50.866;4.366;2022-08-19T03:24:23;21.00;99.90
14531;DHT22;7352;50.866;4.366;2022-08-19T03:27:06;20.90;99.90
14531;DHT22;7352;50.866;4.366;2022-08-19T03:29:37;20.80;99.90
14531;DHT22;7352;50.866;4.366;2022-08-19T03:32:05;20.90;99.90
14531;DHT22;7352;50.866;4.366;2022-08-19T03:34:36;21.00;99.90
14531;DHT22;7352;50.866;4.366;2022-08-19T03:37:06;21.00;99.90
14531;DHT22;7352;50.866;4.366;2022-08-19T03:39:35;21.00;99.90
14531;DHT22;7352;50.866;4.366;2022-08-19T03:42:03;21.00;99.90
14531;DHT22;7352;50.866;4.366;2022-08-19T03:44:33;20.80;99.90
14531;DHT22;7352;50.866;4.366;2022-08-19T03:47:04;20.60;99.90
14531;DHT22;7352;50.866;4.366;2022-08-19T03:49:32;20.50;99.90
14531;DHT22;7352;50.866;4.366;2022-08-19T03:52:01;20.70;99.90
14531;DHT22;7352;50.866;4.366;2022-08-19T03:54:30;20.70;99.90
14531;DHT22;7352;50.866;4.366;2022-08-19T03:56:58;20.60;99.90
14531;DHT22;7352;50.866;4.366;2022-08-19T03:59:27;20.60;99.90
14531;DHT22;7352;50.866;4.366;2022-08-19T04:01:57;20.50;99.90
14531;DHT22;7352;50.866;4.366;2022-08-19T04:04:32;20.40;99.90
14531;DHT22;7352;50.866;4.366;2022-08-19T04:07:02;20.20;99.90
14531;DHT22;7352;50.866;4.366;2022-08-19T04:09:39;20.30;99.90
14531;DHT22;7352;50.866;4.366;2022-08-19T04:12:32;20.20;99.90
14531;DHT22;7352;50.866;4.366;2022-08-19T04:15:24;20.30;99.90
14531;DHT22;7352;50.866;4.366;2022-08-19T04:18:06;20.30;99.90
14531;DHT22;7352;50.866;4.366;2022-08-19T04:20:58;20.20;99.90
14531;DHT22;7352;50.866;4.366;2022-08-19T04:25:00;20.30;99.90
14531;DHT22;7352;50.866;4.366;2022-08-19T04:27:09;20.10;99.90
14531;DHT22;7352;50.866;4.366;2022-08-19T04:30:00;20.10;99.90
14531;DHT22;7352;50.866;4.366;2022-08-19T04:33:08;19.90;99.90
14531;DHT22;7352;50.866;4.366;2022-08-19T04:39:12;20.00;99.90
14531;DHT22;7352;50.866;4.366;2022-08-19T04:42:12;19.80;99.90
14531;DHT22;7352;50.866;4.366;2022-08-19T04:44:57;19.70;99.90
14531;DHT22;7352;50.866;4.366;2022-08-19T04:47:43;19.70;99.90
14531;DHT22;7352;50.866;4.366;2022-08-19T04:50:15;19.60;99.90
14531;DHT22;7352;50.866;4.366;2022-08-19T04:52:47;19.60;99.90
14531;DHT22;7352;50.866;4.366;2022-08-19T04:55:20;19.60;99.90
14531;DHT22;7352;50.866;4.366;2022-08-19T04:57:50;19.60;99.90
14531;DHT22;7352;50.866;4.366;2022-08-19T05:00:25;19.60;99.90
14531;DHT22;7352;50.866;4.366;2022-08-19T05:02:58;19.60;99.90
14531;DHT22;7352;50.866;4.366;2022-08-19T05:05:26;19.70;99.90
14531;DHT22;7352;50.866;4.366;2022-08-19T05:07:56;19.80;99.90
14531;DHT22;7352;50.866;4.366;2022-08-19T05:10:56;19.90;99.90
14531;DHT22;7352;50.866;4.366;2022-08-19T05:13:45;19.80;99.90
14531;DHT22;7352;50.866;4.366;2022-08-19T05:19:52;19.70;99.90
14531;DHT22;7352;50.866;4.366;2022-08-19T05:26:40;20.00;99.90
14531;DHT22;7352;50.866;4.366;2022-08-19T05:29:33;19.90;99.90
14531;DHT22;7352;50.866;4.366;2022-08-19T05:33:39;20.00;99.90
14531;DHT22;7352;50.866;4.366;2022-08-19T05:40:29;20.00;99.90
14531;DHT22;7352;50.866;4.366;2022-08-19T05:42:31;20.00;99.90
14531;DHT22;7352;50.866;4.366;2022-08-19T05:45:13;20.10;99.90
14531;DHT22;7352;50.866;4.366;2022-08-19T05:47:40;20.30;99.90
14531;DHT22;7352;50.866;4.366;2022-08-19T05:50:08;20.40;99.90
14531;DHT22;7352;50.866;4.366;2022-08-19T05:52:58;20.40;99.90
14531;DHT22;7352;50.866;4.366;2022-08-19T05:55:26;20.50;99.90
14531;DHT22;7352;50.866;4.366;2022-08-19T06:00:57;20.60;99.90
14531;DHT22;7352;50.866;4.366;2022-08-19T06:03:34;20.60;99.90
14531;DHT22;7352;50.866;4.366;2022-08-19T06:06:08;20.80;99.90
14531;DHT22;7352;50.866;4.366;2022-08-19T06:08:45;21.00;99.90
14531;DHT22;7352;50.866;4.366;2022-08-19T06:11:20;21.00;99.90
14531;DHT22;7352;50.866;4.366;2022-08-19T06:14:08;21.00;99.90
14531;DHT22;7352;50.866;4.366;2022-08-19T06:16:57;21.20;99.90
14531;DHT22;7352;50.866;4.366;2022-08-19T06:19:57;21.30;99.90
14531;DHT22;7352;50.866;4.366;2022-08-19T06:22:38;21.40;99.90
14531;DHT22;7352;50.866;4.366;2022-08-19T06:25:10;21.30;99.90
14531;DHT22;7352;50.866;4.366;2022-08-19T06:27:37;21.20;99.90
14531;DHT22;7352;50.866;4.366;2022-08-19T06:30:06;21.10;99.90
14531;DHT22;7352;50.866;4.366;2022-08-19T06:32:35;21.10;99.90
14531;DHT22;7352;50.866;4.366;2022-08-19T06:35:02;21.30;99.90
14531;DHT22;7352;50.866;4.366;2022-08-19T06:37:29;21.40;99.90
14531;DHT22;7352;50.866;4.366;2022-08-19T06:39:57;21.60;99.90
14531;DHT22;7352;50.866;4.366;2022-08-19T06:42:24;21.70;99.90
14531;DHT22;7352;50.866;4.366;2022-08-19T06:44:52;21.70;99.90
14531;DHT22;7352;50.866;4.366;2022-08-19T06:47:20;21.60;99.90
14531;DHT22;7352;50.866;4.366;2022-08-19T06:49:50;21.40;99.90
14531;DHT22;7352;50.866;4.366;2022-08-19T06:52:17;21.40;99.90
14531;DHT22;7352;50.866;4.366;2022-08-19T06:54:44;21.40;99.90
14531;DHT22;7352;50.866;4.366;2022-08-19T06:57:11;21.20;99.90
14531;DHT22;7352;50.866;4.366;2022-08-19T06:59:40;21.30;99.90
14531;DHT22;7352;50.866;4.366;2022-08-19T07:02:08;21.50;99.90
14531;DHT22;7352;50.866;4.366;2022-08-19T07:04:35;21.60;99.90
14531;DHT22;7352;50.866;4.366;2022-08-19T07:07:06;21.50;99.90
14531;DHT22;7352;50.866;4.366;2022-08-19T07:09:36;21.50;99.90
14531;DHT22;7352;50.866;4.366;2022-08-19T07:12:05;21.70;99.90
14531;DHT22;7352;50.866;4.366;2022-08-19T07:14:33;21.80;99.90
14531;DHT22;7352;50.866;4.366;2022-08-19T07:17:06;21.80;99.90
14531;DHT22;7352;50.866;4.366;2022-08-19T07:19:33;22.00;99.90
14531;DHT22;7352;50.866;4.366;2022-08-19T07:22:02;22.00;99.90
14531;DHT22;7352;50.866;4.366;2022-08-19T07:24:32;22.20;99.90
14531;DHT22;7352;50.866;4.366;2022-08-19T07:27:01;22.20;99.90
14531;DHT22;7352;50.866;4.366;2022-08-19T07:29:30;22.30;99.90
14531;DHT22;7352;50.866;4.366;2022-08-19T07:31:58;22.20;99.90
14531;DHT22;7352;50.866;4.366;2022-08-19T07:34:27;22.40;99.90
14531;DHT22;7352;50.866;4.366;2022-08-19T07:36:55;22.50;99.90
14531;DHT22;7352;50.866;4.366;2022-08-19T07:39:25;22.60;99.90
14531;DHT22;7352;50.866;4.366;2022-08-19T07:41:55;22.70;99.90
14531;DHT22;7352;50.866;4.366;2022-08-19T07:44:22;22.90;99.90
14531;DHT22;7352;50.866;4.366;2022-08-19T07:46:53;23.10;99.90
14531;DHT22;7352;50.866;4.366;2022-08-19T07:49:22;23.20;99.90
14531;DHT22;7352;50.866;4.366;2022-08-19T07:51:52;23.10;99.90
14531;DHT22;7352;50.866;4.366;2022-08-19T07:54:20;23.20;99.90
14531;DHT22;7352;50.866;4.366;2022-08-19T07:56:54;23.20;99.90
14531;DHT22;7352;50.866;4.366;2022-08-19T07:59:22;23.30;99.90
14531;DHT22;7352;50.866;4.366;2022-08-19T08:01:50;23.00;99.90
14531;DHT22;7352;50.866;4.366;2022-08-19T08:04:19;23.10;99.90
14531;DHT22;7352;50.866;4.366;2022-08-19T08:07:04;23.20;99.90
14531;DHT22;7352;50.866;4.366;2022-08-19T08:09:48;23.50;99.90
14531;DHT22;7352;50.866;4.366;2022-08-19T08:12:19;23.80;99.90
14531;DHT22;7352;50.866;4.366;2022-08-19T08:14:50;23.90;99.90
14531;DHT22;7352;50.866;4.366;2022-08-19T08:17:22;24.20;99.90
14531;DHT22;7352;50.866;4.366;2022-08-19T08:19:50;24.30;99.90
14531;DHT22;7352;50.866;4.366;2022-08-19T08:22:19;24.10;99.90
14531;DHT22;7352;50.866;4.366;2022-08-19T08:25:07;24.00;99.90
14531;DHT22;7352;50.866;4.366;2022-08-19T08:27:38;23.90;99.90
14531;DHT22;7352;50.866;4.366;2022-08-19T08:30:10;24.00;99.90
14531;DHT22;7352;50.866;4.366;2022-08-19T08:32:43;23.90;99.90
14531;DHT22;7352;50.866;4.366;2022-08-19T08:35:13;23.90;99.90
14531;DHT22;7352;50.866;4.366;2022-08-19T08:37:42;24.00;99.90
14531;DHT22;7352;50.866;4.366;2022-08-19T08:40:20;24.10;99.90
14531;DHT22;7352;50.866;4.366;2022-08-19T08:42:57;24.10;99.90
14531;DHT22;7352;50.866;4.366;2022-08-19T08:45:30;24.00;99.90
14531;DHT22;7352;50.866;4.366;2022-08-19T08:48:04;23.90;99.90
14531;DHT22;7352;50.866;4.366;2022-08-19T08:50:41;24.00;99.90
14531;DHT22;7352;50.866;4.366;2022-08-19T08:53:10;24.00;99.90
14531;DHT22;7352;50.866;4.366;2022-08-19T08:55:42;24.00;99.90
14531;DHT22;7352;50.866;4.366;2022-08-19T08:58:17;24.00;99.90
14531;DHT22;7352;50.866;4.366;2022-08-19T09:00:48;24.00;99.90
14531;DHT22;7352;50.866;4.366;2022-08-19T09:03:18;24.10;99.90
14531;DHT22;7352;50.866;4.366;2022-08-19T09:05:55;24.10;99.90
14531;DHT22;7352;50.866;4.366;2022-08-19T09:08:38;24.20;99.90
14531;DHT22;7352;50.866;4.366;2022-08-19T09:11:09;24.30;99.90
14531;DHT22;7352;50.866;4.366;2022-08-19T09:13:44;24.20;99.90
14531;DHT22;7352;50.866;4.366;2022-08-19T09:16:18;24.40;99.90
14531;DHT22;7352;50.866;4.366;2022-08-19T09:18:49;24.30;99.90
14531;DHT22;7352;50.866;4.366;2022-08-19T09:21:19;24.10;99.90
14531;DHT22;7352;50.866;4.366;2022-08-19T09:23:49;24.10;99.90
14531;DHT22;7352;50.866;4.366;2022-08-19T09:26:22;24.00;99.90
14531;DHT22;7352;50.866;4.366;2022-08-19T09:28:52;24.20;99.90
14531;DHT22;7352;50.866;4.366;2022-08-19T09:31:22;24.20;99.90
14531;DHT22;7352;50.866;4.366;2022-08-19T09:33:53;24.30;99.90
14531;DHT22;7352;50.866;4.366;2022-08-19T09:36:25;24.30;99.90
14531;DHT22;7352;50.866;4.366;2022-08-19T09:38:56;24.40;99.90
14531;DHT22;7352;50.866;4.366;2022-08-19T09:41:24;24.30;99.90
14531;DHT22;7352;50.866;4.366;2022-08-19T09:43:58;24.30;99.90
14531;DHT22;7352;50.866;4.366;2022-08-19T09:46:34;24.30;99.90
14531;DHT22;7352;50.866;4.366;2022-08-19T09:49:03;24.50;99.90
14531;DHT22;7352;50.866;4.366;2022-08-19T09:51:31;24.60;99.90
14531;DHT22;7352;50.866;4.366;2022-08-19T09:54:00;24.60;99.90
14531;DHT22;7352;50.866;4.366;2022-08-19T09:56:30;24.80;99.90
14531;DHT22;7352;50.866;4.366;2022-08-19T09:59:00;25.00;99.90
14531;DHT22;7352;50.866;4.366;2022-08-19T10:01:32;25.10;99.90
14531;DHT22;7352;50.866;4.366;2022-08-19T10:04:00;24.80;99.90
14531;DHT22;7352;50.866;4.366;2022-08-19T10:06:36;24.90;99.90
14531;DHT22;7352;50.866;4.366;2022-08-19T10:09:05;24.80;99.90
14531;DHT22;7352;50.866;4.366;2022-08-19T10:11:40;25.00;99.90
14531;DHT22;7352;50.866;4.366;2022-08-19T10:14:15;25.00;99.90
14531;DHT22;7352;50.866;4.366;2022-08-19T10:16:42;25.10;99.90
14531;DHT22;7352;50.866;4.366;2022-08-19T10:19:09;24.90;99.90
14531;DHT22;7352;50.866;4.366;2022-08-19T10:21:37;24.80;99.90
14531;DHT22;7352;50.866;4.366;2022-08-19T10:24:10;24.60;99.90
14531;DHT22;7352;50.866;4.366;2022-08-19T10:26:39;24.70;99.90
14531;DHT22;7352;50.866;4.366;2022-08-19T10:29:16;24.80;99.90
14531;DHT22;7352;50.866;4.366;2022-08-19T10:31:44;24.90;99.90
14531;DHT22;7352;50.866;4.366;2022-08-19T10:34:13;25.00;99.90
14531;DHT22;7352;50.866;4.366;2022-08-19T10:36:41;25.10;99.90
14531;DHT22;7352;50.866;4.366;2022-08-19T10:39:09;25.10;99.90
14531;DHT22;7352;50.866;4.366;2022-08-19T10:41:39;25.10;99.90
14531;DHT22;7352;50.866;4.366;2022-08-19T10:44:10;25.20;99.90
14531;DHT22;7352;50.866;4.366;2022-08-19T10:46:41;25.30;99.90
14531;DHT22;7352;50.866;4.366;2022-08-19T10:49:10;25.40;99.90
14531;DHT22;7352;50.866;4.366;2022-08-19T10:51:39;25.20;99.90
14531;DHT22;7352;50.866;4.366;2022-08-19T10:54:26;25.10;99.90
14531;DHT22;7352;50.866;4.366;2022-08-19T10:57:13;25.10;99.90
14531;DHT22;7352;50.866;4.366;2022-08-19T10:59:42;25.40;99.90
14531;DHT22;7352;50.866;4.366;2022-08-19T11:02:11;25.50;99.90
14531;DHT22;7352;50.866;4.366;2022-08-19T11:04:39;25.30;99.90
14531;DHT22;7352;50.866;4.366;2022-08-19T11:07:08;25.10;99.90
14531;DHT22;7352;50.866;4.366;2022-08-19T11:09:39;24.80;99.90
14531;DHT22;7352;50.866;4.366;2022-08-19T11:12:07;25.00;99.90
14531;DHT22;7352;50.866;4.366;2022-08-19T11:14:37;25.00;99.90
14531;DHT22;7352;50.866;4.366;2022-08-19T11:17:05;25.20;99.90
14531;DHT22;7352;50.866;4.366;2022-08-19T11:19:34;25.50;99.90
14531;DHT22;7352;50.866;4.366;2022-08-19T11:22:01;25.70;99.90
14531;DHT22;7352;50.866;4.366;2022-08-19T11:24:29;25.90;99.90
14531;DHT22;7352;50.866;4.366;2022-08-19T11:27:01;26.00;99.90
14531;DHT22;7352;50.866;4.366;2022-08-19T11:29:31;26.00;99.90
14531;DHT22;7352;50.866;4.366;2022-08-19T11:32:04;26.00;99.90
14531;DHT22;7352;50.866;4.366;2022-08-19T11:34:33;26.00;99.90
14531;DHT22;7352;50.866;4.366;2022-08-19T11:37:01;26.00;99.90
14531;DHT22;7352;50.866;4.366;2022-08-19T11:39:30;26.00;99.90
14531;DHT22;7352;50.866;4.366;2022-08-19T11:42:05;25.80;99.90
14531;DHT22;7352;50.866;4.366;2022-08-19T11:44:54;25.50;99.90
14531;DHT22;7352;50.866;4.366;2022-08-19T11:47:22;25.50;99.90
14531;DHT22;7352;50.866;4.366;2022-08-19T11:49:51;25.50;99.90
14531;DHT22;7352;50.866;4.366;2022-08-19T11:52:19;25.70;99.90
14531;DHT22;7352;50.866;4.366;2022-08-19T11:54:49;25.70;99.90
14531;DHT22;7352;50.866;4.366;2022-08-19T11:57:16;26.20;99.90
14531;DHT22;7352;50.866;4.366;2022-08-19T11:59:48;26.40;99.90
14531;DHT22;7352;50.866;4.366;2022-08-19T12:02:15;26.50;99.90
14531;DHT22;7352;50.866;4.366;2022-08-19T12:04:44;26.70;99.90
14531;DHT22;7352;50.866;4.366;2022-08-19T12:07:13;26.80;99.90
14531;DHT22;7352;50.866;4.366;2022-08-19T12:09:41;26.90;99.90
14531;DHT22;7352;50.866;4.366;2022-08-19T12:12:08;26.90;99.90
14531;DHT22;7352;50.866;4.366;2022-08-19T12:14:37;27.00;99.90
14531;DHT22;7352;50.866;4.366;2022-08-19T12:17:04;27.10;99.90
14531;DHT22;7352;50.866;4.366;2022-08-19T12:19:35;27.60;99.90
14531;DHT22;7352;50.866;4.366;2022-08-19T12:22:02;27.60;99.90
14531;DHT22;7352;50.866;4.366;2022-08-19T12:24:33;27.70;99.90
14531;DHT22;7352;50.866;4.366;2022-08-19T12:27:15;27.70;99.90
14531;DHT22;7352;50.866;4.366;2022-08-19T12:29:48;27.60;99.90
14531;DHT22;7352;50.866;4.366;2022-08-19T12:32:15;27.50;99.90
14531;DHT22;7352;50.866;4.366;2022-08-19T12:34:45;27.60;99.90
14531;DHT22;7352;50.866;4.366;2022-08-19T12:37:14;27.70;99.90
14531;DHT22;7352;50.866;4.366;2022-08-19T12:39:44;27.70;99.90
14531;DHT22;7352;50.866;4.366;2022-08-19T12:42:12;27.70;99.60
14531;DHT22;7352;50.866;4.366;2022-08-19T12:44:46;27.90;99.60
14531;DHT22;7352;50.866;4.366;2022-08-19T12:47:14;27.80;99.20
14531;DHT22;7352;50.866;4.366;2022-08-19T12:49:42;27.80;98.90
14531;DHT22;7352;50.866;4.366;2022-08-19T12:52:11;27.60;99.00
14531;DHT22;7352;50.866;4.366;2022-08-19T12:54:46;27.70;99.40
14531;DHT22;7352;50.866;4.366;2022-08-19T12:57:13;27.90;98.90
14531;DHT22;7352;50.866;4.366;2022-08-19T12:59:40;27.90;98.70
14531;DHT22;7352;50.866;4.366;2022-08-19T13:02:08;27.70;98.80
14531;DHT22;7352;50.866;4.366;2022-08-19T13:04:43;27.80;99.00
14531;DHT22;7352;50.866;4.366;2022-08-19T13:07:12;27.90;98.30
14531;DHT22;7352;50.866;4.366;2022-08-19T13:09:40;28.10;98.70
14531;DHT22;7352;50.866;4.366;2022-08-19T13:12:09;28.00;98.40
14531;DHT22;7352;50.866;4.366;2022-08-19T13:14:38;28.00;98.00
14531;DHT22;7352;50.866;4.366;2022-08-19T13:17:06;28.00;97.80
14531;DHT22;7352;50.866;4.366;2022-08-19T13:19:36;28.00;98.00
14531;DHT22;7352;50.866;4.366;2022-08-19T13:22:05;27.80;98.10
14531;DHT22;7352;50.866;4.366;2022-08-19T13:24:32;27.90;98.10
14531;DHT22;7352;50.866;4.366;2022-08-19T13:27:00;27.70;98.50
14531;DHT22;7352;50.866;4.366;2022-08-19T13:29:28;27.70;98.40
14531;DHT22;7352;50.866;4.366;2022-08-19T13:32:15;27.80;98.20
14531;DHT22;7352;50.866;4.366;2022-08-19T13:35:00;27.60;98.40
14531;DHT22;7352;50.866;4.366;2022-08-19T13:37:28;27.60;98.50
14531;DHT22;7352;50.866;4.366;2022-08-19T13:40:10;27.70;98.40
14531;DHT22;7352;50.866;4.366;2022-08-19T13:42:38;27.70;98.40
14531;DHT22;7352;50.866;4.366;2022-08-19T13:45:15;27.80;98.40
14531;DHT22;7352;50.866;4.366;2022-08-19T13:47:45;27.90;98.20
14531;DHT22;7352;50.866;4.366;2022-08-19T13:50:14;28.10;97.90
14531;DHT22;7352;50.866;4.366;2022-08-19T13:52:42;28.00;97.80
14531;DHT22;7352;50.866;4.366;2022-08-19T13:55:11;28.10;98.00
14531;DHT22;7352;50.866;4.366;2022-08-19T13:57:43;28.10;97.80
14531;DHT22;7352;50.866;4.366;2022-08-19T14:00:19;27.90;97.90
14531;DHT22;7352;50.866;4.366;2022-08-19T14:02:59;27.60;98.30
14531;DHT22;7352;50.866;4.366;2022-08-19T14:05:29;27.60;98.50
14531;DHT22;7352;50.866;4.366;2022-08-19T14:07:56;27.50;98.60
14531;DHT22;7352;50.866;4.366;2022-08-19T14:10:30;27.30;99.20
14531;DHT22;7352;50.866;4.366;2022-08-19T14:12:59;27.00;99.90
14531;DHT22;7352;50.866;4.366;2022-08-19T14:15:29;26.60;99.90
14531;DHT22;7352;50.866;4.366;2022-08-19T14:17:57;26.30;99.90
14531;DHT22;7352;50.866;4.366;2022-08-19T14:20:25;26.10;99.90
14531;DHT22;7352;50.866;4.366;2022-08-19T14:22:53;25.90;99.90
14531;DHT22;7352;50.866;4.366;2022-08-19T14:25:22;25.80;99.90
14531;DHT22;7352;50.866;4.366;2022-08-19T14:27:50;25.90;99.90
14531;DHT22;7352;50.866;4.366;2022-08-19T14:30:19;25.80;99.90
14531;DHT22;7352;50.866;4.366;2022-08-19T14:32:48;26.10;99.90
14531;DHT22;7352;50.866;4.366;2022-08-19T14:35:16;26.30;99.90
14531;DHT22;7352;50.866;4.366;2022-08-19T14:37:45;26.30;99.90
14531;DHT22;7352;50.866;4.366;2022-08-19T14:40:13;26.30;99.90
14531;DHT22;7352;50.866;4.366;2022-08-19T14:42:41;26.10;99.90
14531;DHT22;7352;50.866;4.366;2022-08-19T14:45:09;25.90;99.90
14531;DHT22;7352;50.866;4.366;2022-08-19T14:47:36;25.90;99.90
14531;DHT22;7352;50.866;4.366;2022-08-19T14:50:10;25.70;99.90
14531;DHT22;7352;50.866;4.366;2022-08-19T14:52:37;25.70;99.90
14531;DHT22;7352;50.866;4.366;2022-08-19T14:55:09;25.70;99.90
14531;DHT22;7352;50.866;4.366;2022-08-19T14:57:37;25.70;99.90
14531;DHT22;7352;50.866;4.366;2022-08-19T15:00:06;25.90;99.90
14531;DHT22;7352;50.866;4.366;2022-08-19T15:02:37;26.10;99.90
14531;DHT22;7352;50.866;4.366;2022-08-19T15:05:05;26.30;99.90
14531;DHT22;7352;50.866;4.366;2022-08-19T15:07:33;26.30;99.90
14531;DHT22;7352;50.866;4.366;2022-08-19T15:10:02;26.80;99.90
14531;DHT22;7352;50.866;4.366;2022-08-19T15:12:43;27.10;99.90
14531;DHT22;7352;50.866;4.366;2022-08-19T15:15:14;27.30;99.90
14531;DHT22;7352;50.866;4.366;2022-08-19T15:17:43;27.70;99.90
14531;DHT22;7352;50.866;4.366;2022-08-19T15:20:11;27.90;99.90
14531;DHT22;7352;50.866;4.366;2022-08-19T15:22:40;28.10;99.90
14531;DHT22;7352;50.866;4.366;2022-08-19T15:25:10;28.50;99.90
14531;DHT22;7352;50.866;4.366;2022-08-19T15:27:38;28.90;99.90
14531;DHT22;7352;50.866;4.366;2022-08-19T15:30:06;28.90;99.90
14531;DHT22;7352;50.866;4.366;2022-08-19T15:32:34;28.40;99.90
14531;DHT22;7352;50.866;4.366;2022-08-19T15:35:02;28.20;99.90
14531;DHT22;7352;50.866;4.366;2022-08-19T15:37:30;28.00;99.90
14531;DHT22;7352;50.866;4.366;2022-08-19T15:39:59;27.90;99.90
14531;DHT22;7352;50.866;4.366;2022-08-19T15:42:26;27.70;99.90
14531;DHT22;7352;50.866;4.366;2022-08-19T15:44:53;27.50;99.90
14531;DHT22;7352;50.866;4.366;2022-08-19T15:47:21;27.40;99.90
14531;DHT22;7352;50.866;4.366;2022-08-19T15:49:48;27.10;99.90
14531;DHT22;7352;50.866;4.366;2022-08-19T15:52:15;26.90;99.90
14531;DHT22;7352;50.866;4.366;2022-08-19T15:54:45;26.50;99.90
14531;DHT22;7352;50.866;4.366;2022-08-19T15:57:14;26.50;99.90
14531;DHT22;7352;50.866;4.366;2022-08-19T15:59:58;26.50;99.90
14531;DHT22;7352;50.866;4.366;2022-08-19T16:02:42;26.50;99.90
14531;DHT22;7352;50.866;4.366;2022-08-19T16:05:27;26.20;99.90
14531;DHT22;7352;50.866;4.366;2022-08-19T16:08:11;26.10;99.90
14531;DHT22;7352;50.866;4.366;2022-08-19T16:10:40;26.00;99.90
14531;DHT22;7352;50.866;4.366;2022-08-19T16:13:08;26.10;99.90
14531;DHT22;7352;50.866;4.366;2022-08-19T16:15:36;26.10;99.90
14531;DHT22;7352;50.866;4.366;2022-08-19T16:18:08;26.00;99.90
14531;DHT22;7352;50.866;4.366;2022-08-19T16:20:35;26.00;99.90
14531;DHT22;7352;50.866;4.366;2022-08-19T16:23:02;26.00;99.90
14531;DHT22;7352;50.866;4.366;2022-08-19T16:25:29;25.70;99.90
14531;DHT22;7352;50.866;4.366;2022-08-19T16:27:58;25.70;99.90
14531;DHT22;7352;50.866;4.366;2022-08-19T16:30:26;25.90;99.90
14531;DHT22;7352;50.866;4.366;2022-08-19T16:32:53;26.30;99.90
14531;DHT22;7352;50.866;4.366;2022-08-19T16:35:20;26.40;99.90
14531;DHT22;7352;50.866;4.366;2022-08-19T16:37:47;26.50;99.90
14531;DHT22;7352;50.866;4.366;2022-08-19T16:40:14;26.60;99.90
14531;DHT22;7352;50.866;4.366;2022-08-19T16:42:41;26.70;99.90
14531;DHT22;7352;50.866;4.366;2022-08-19T16:45:09;26.50;99.90
14531;DHT22;7352;50.866;4.366;2022-08-19T16:47:37;26.50;99.90
14531;DHT22;7352;50.866;4.366;2022-08-19T16:50:05;26.30;99.90
14531;DHT22;7352;50.866;4.366;2022-08-19T16:52:33;26.30;99.90
14531;DHT22;7352;50.866;4.366;2022-08-19T16:55:00;26.40;99.90
14531;DHT22;7352;50.866;4.366;2022-08-19T16:57:28;26.30;99.90
14531;DHT22;7352;50.866;4.366;2022-08-19T16:59:56;26.30;99.90
14531;DHT22;7352;50.866;4.366;2022-08-19T17:02:23;26.40;99.90
14531;DHT22;7352;50.866;4.366;2022-08-19T17:04:53;26.40;99.90
14531;DHT22;7352;50.866;4.366;2022-08-19T17:07:20;26.30;99.90
14531;DHT22;7352;50.866;4.366;2022-08-19T17:09:47;26.20;99.90
14531;DHT22;7352;50.866;4.366;2022-08-19T17:12:15;26.20;99.90
14531;DHT22;7352;50.866;4.366;2022-08-19T17:14:41;26.20;99.90
14531;DHT22;7352;50.866;4.366;2022-08-19T17:17:10;26.10;99.90
14531;DHT22;7352;50.866;4.366;2022-08-19T17:19:38;25.90;99.90
14531;DHT22;7352;50.866;4.366;2022-08-19T17:22:08;26.00;99.90
14531;DHT22;7352;50.866;4.366;2022-08-19T17:24:37;26.00;99.90
14531;DHT22;7352;50.866;4.366;2022-08-19T17:27:06;25.90;99.90
14531;DHT22;7352;50.866;4.366;2022-08-19T17:29:34;25.70;99.90
14531;DHT22;7352;50.866;4.366;2022-08-19T17:32:01;25.80;99.90
14531;DHT22;7352;50.866;4.366;2022-08-19T17:34:29;25.60;99.90
14531;DHT22;7352;50.866;4.366;2022-08-19T17:36:56;25.60;99.90